sensor_id;sensor_type;location;lat;lon;timestamp;P1;durP1;ratioP1;P2;durP2;ratioP2
61391;SDS011;47261;52.892;5.738;2022-09-09T00:00:17;17.85;;;8.77;;
61391;SDS011;47261;52.892;5.738;2022-09-09T00:05:47;21.27;;;7.82;;
61391;SDS011;47261;52.892;5.738;2022-09-09T00:08:33;19.02;;;8.25;;
61391;SDS011;47261;52.892;5.738;2022-09-09T00:11:13;17.95;;;8.63;;
61391;SDS011;47261;52.892;5.738;2022-09-09T00:13:48;19.45;;;8.85;;
61391;SDS011;47261;52.892;5.738;2022-09-09T00:16:25;20.47;;;7.80;;
61391;SDS011;47261;52.892;5.738;2022-09-09T00:19:02;15.48;;;8.00;;
61391;SDS011;47261;52.892;5.738;2022-09-09T00:30:12;17.37;;;7.70;;
61391;SDS011;47261;52.892;5.738;2022-09-09T00:32:47;18.23;;;7.30;;
61391;SDS011;47261;52.892;5.738;2022-09-09T00:35:21;19.55;;;7.13;;
61391;SDS011;47261;52.892;5.738;2022-09-09T00:37:50;18.35;;;8.65;;
61391;SDS011;47261;52.892;5.738;2022-09-09T00:40:22;14.90;;;7.30;;
61391;SDS011;47261;52.892;5.738;2022-09-09T00:42:48;17.33;;;7.87;;
61391;SDS011;47261;52.892;5.738;2022-09-09T00:48:19;15.57;;;7.55;;
61391;SDS011;47261;52.892;5.738;2022-09-09T00:50:57;21.00;;;7.88;;
61391;SDS011;47261;52.892;5.738;2022-09-09T00:53:51;15.70;;;7.80;;
61391;SDS011;47261;52.892;5.738;2022-09-09T00:56:37;15.47;;;7.43;;
61391;SDS011;47261;52.892;5.738;2022-09-09T01:02:13;21.23;;;7.60;;
61391;SDS011;47261;52.892;5.738;2022-09-09T01:04:47;18.38;;;8.27;;
61391;SDS011;47261;52.892;5.738;2022-09-09T01:07:16;13.90;;;7.30;;
61391;SDS011;47261;52.892;5.738;2022-09-09T01:17:39;15.33;;;7.47;;
61391;SDS011;47261;52.892;5.738;2022-09-09T01:20:17;22.63;;;8.82;;
61391;SDS011;47261;52.892;5.738;2022-09-09T01:22:50;17.30;;;6.47;;
61391;SDS011;47261;52.892;5.738;2022-09-09T01:28:27;15.27;;;7.22;;
61391;SDS011;47261;52.892;5.738;2022-09-09T01:30:54;13.47;;;7.40;;
61391;SDS011;47261;52.892;5.738;2022-09-09T01:33:21;14.15;;;6.35;;
61391;SDS011;47261;52.892;5.738;2022-09-09T01:35:52;14.35;;;6.80;;
61391;SDS011;47261;52.892;5.738;2022-09-09T01:38:22;17.85;;;6.70;;
61391;SDS011;47261;52.892;5.738;2022-09-09T01:40:49;15.38;;;6.93;;
61391;SDS011;47261;52.892;5.738;2022-09-09T01:43:18;18.27;;;6.73;;
61391;SDS011;47261;52.892;5.738;2022-09-09T01:45:48;12.93;;;6.95;;
61391;SDS011;47261;52.892;5.738;2022-09-09T01:48:16;17.55;;;7.18;;
61391;SDS011;47261;52.892;5.738;2022-09-09T01:50:42;13.23;;;6.22;;
61391;SDS011;47261;52.892;5.738;2022-09-09T01:53:08;14.03;;;6.20;;
61391;SDS011;47261;52.892;5.738;2022-09-09T01:55:39;17.58;;;6.70;;
61391;SDS011;47261;52.892;5.738;2022-09-09T02:00:45;16.17;;;6.00;;
61391;SDS011;47261;52.892;5.738;2022-09-09T02:03:31;14.02;;;5.38;;
61391;SDS011;47261;52.892;5.738;2022-09-09T02:06:24;18.30;;;6.23;;
61391;SDS011;47261;52.892;5.738;2022-09-09T02:08:53;13.38;;;5.15;;
61391;SDS011;47261;52.892;5.738;2022-09-09T02:11:25;11.77;;;5.43;;
61391;SDS011;47261;52.892;5.738;2022-09-09T02:13:53;14.30;;;5.32;;
61391;SDS011;47261;52.892;5.738;2022-09-09T02:16:41;12.75;;;4.68;;
61391;SDS011;47261;52.892;5.738;2022-09-09T02:22:13;12.95;;;4.38;;
61391;SDS011;47261;52.892;5.738;2022-09-09T02:24:42;12.13;;;4.18;;
61391;SDS011;47261;52.892;5.738;2022-09-09T02:27:09;11.65;;;4.20;;
61391;SDS011;47261;52.892;5.738;2022-09-09T02:29:38;8.32;;;3.90;;
61391;SDS011;47261;52.892;5.738;2022-09-09T02:32:14;12.73;;;4.70;;
61391;SDS011;47261;52.892;5.738;2022-09-09T02:34:43;12.50;;;5.15;;
61391;SDS011;47261;52.892;5.738;2022-09-09T02:37:12;12.95;;;4.88;;
61391;SDS011;47261;52.892;5.738;2022-09-09T02:39:42;9.65;;;4.30;;
61391;SDS011;47261;52.892;5.738;2022-09-09T02:42:08;12.73;;;4.30;;
61391;SDS011;47261;52.892;5.738;2022-09-09T02:44:34;14.15;;;4.80;;
61391;SDS011;47261;52.892;5.738;2022-09-09T02:47:15;8.55;;;4.13;;
61391;SDS011;47261;52.892;5.738;2022-09-09T02:50:17;8.80;;;4.20;;
61391;SDS011;47261;52.892;5.738;2022-09-09T02:55:58;10.82;;;4.80;;
61391;SDS011;47261;52.892;5.738;2022-09-09T02:58:40;12.57;;;4.28;;
61391;SDS011;47261;52.892;5.738;2022-09-09T03:01:06;11.10;;;4.63;;
61391;SDS011;47261;52.892;5.738;2022-09-09T03:03:33;9.77;;;4.43;;
61391;SDS011;47261;52.892;5.738;2022-09-09T03:06:00;12.50;;;3.83;;
61391;SDS011;47261;52.892;5.738;2022-09-09T03:08:25;10.38;;;4.07;;
61391;SDS011;47261;52.892;5.738;2022-09-09T03:10:52;11.52;;;3.63;;
61391;SDS011;47261;52.892;5.738;2022-09-09T03:13:19;8.07;;;3.85;;
61391;SDS011;47261;52.892;5.738;2022-09-09T03:15:44;8.93;;;3.50;;
61391;SDS011;47261;52.892;5.738;2022-09-09T03:18:10;8.93;;;3.10;;
61391;SDS011;47261;52.892;5.738;2022-09-09T03:20:36;10.10;;;3.55;;
61391;SDS011;47261;52.892;5.738;2022-09-09T03:23:01;7.33;;;3.23;;
61391;SDS011;47261;52.892;5.738;2022-09-09T03:25:27;15.75;;;3.75;;
61391;SDS011;47261;52.892;5.738;2022-09-09T03:27:54;8.90;;;3.45;;
61391;SDS011;47261;52.892;5.738;2022-09-09T03:30:20;10.30;;;3.47;;
61391;SDS011;47261;52.892;5.738;2022-09-09T03:32:47;8.00;;;3.40;;
61391;SDS011;47261;52.892;5.738;2022-09-09T03:35:13;8.82;;;3.50;;
61391;SDS011;47261;52.892;5.738;2022-09-09T03:37:38;15.60;;;4.53;;
61391;SDS011;47261;52.892;5.738;2022-09-09T03:40:04;10.15;;;3.72;;
61391;SDS011;47261;52.892;5.738;2022-09-09T03:42:31;10.43;;;4.47;;
61391;SDS011;47261;52.892;5.738;2022-09-09T03:44:56;12.60;;;4.60;;
61391;SDS011;47261;52.892;5.738;2022-09-09T03:47:22;9.57;;;4.28;;
61391;SDS011;47261;52.892;5.738;2022-09-09T03:49:48;11.10;;;4.30;;
61391;SDS011;47261;52.892;5.738;2022-09-09T03:52:14;13.95;;;4.25;;
61391;SDS011;47261;52.892;5.738;2022-09-09T03:54:41;12.98;;;5.13;;
61391;SDS011;47261;52.892;5.738;2022-09-09T03:57:08;11.57;;;4.65;;
61391;SDS011;47261;52.892;5.738;2022-09-09T03:59:34;14.07;;;4.38;;
61391;SDS011;47261;52.892;5.738;2022-09-09T04:02:00;14.13;;;5.43;;
61391;SDS011;47261;52.892;5.738;2022-09-09T04:04:27;10.85;;;4.68;;
61391;SDS011;47261;52.892;5.738;2022-09-09T04:06:52;15.90;;;4.97;;
61391;SDS011;47261;52.892;5.738;2022-09-09T04:09:18;11.25;;;4.70;;
61391;SDS011;47261;52.892;5.738;2022-09-09T04:11:44;38.87;;;5.50;;
61391;SDS011;47261;52.892;5.738;2022-09-09T04:14:11;13.35;;;5.00;;
61391;SDS011;47261;52.892;5.738;2022-09-09T04:16:37;30.08;;;6.57;;
61391;SDS011;47261;52.892;5.738;2022-09-09T04:19:03;15.73;;;5.90;;
61391;SDS011;47261;52.892;5.738;2022-09-09T04:21:31;11.40;;;5.70;;
61391;SDS011;47261;52.892;5.738;2022-09-09T04:23:57;15.18;;;5.95;;
61391;SDS011;47261;52.892;5.738;2022-09-09T04:26:23;14.13;;;5.78;;
61391;SDS011;47261;52.892;5.738;2022-09-09T04:28:49;14.73;;;5.70;;
61391;SDS011;47261;52.892;5.738;2022-09-09T04:31:16;16.83;;;6.50;;
61391;SDS011;47261;52.892;5.738;2022-09-09T04:33:45;14.23;;;5.47;;
61391;SDS011;47261;52.892;5.738;2022-09-09T04:36:11;14.30;;;5.38;;
61391;SDS011;47261;52.892;5.738;2022-09-09T04:38:38;16.23;;;5.68;;
61391;SDS011;47261;52.892;5.738;2022-09-09T04:41:04;10.87;;;4.07;;
61391;SDS011;47261;52.892;5.738;2022-09-09T04:43:31;16.70;;;6.68;;
61391;SDS011;47261;52.892;5.738;2022-09-09T04:45:57;19.50;;;7.03;;
61391;SDS011;47261;52.892;5.738;2022-09-09T04:48:24;17.98;;;6.38;;
61391;SDS011;47261;52.892;5.738;2022-09-09T04:51:23;19.60;;;7.78;;
61391;SDS011;47261;52.892;5.738;2022-09-09T04:53:42;16.67;;;6.20;;
61391;SDS011;47261;52.892;5.738;2022-09-09T04:56:11;11.07;;;4.93;;
61391;SDS011;47261;52.892;5.738;2022-09-09T04:58:41;17.80;;;5.88;;
61391;SDS011;47261;52.892;5.738;2022-09-09T05:01:18;12.45;;;5.40;;
61391;SDS011;47261;52.892;5.738;2022-09-09T05:03:46;14.67;;;6.20;;
61391;SDS011;47261;52.892;5.738;2022-09-09T05:06:16;14.27;;;6.18;;
61391;SDS011;47261;52.892;5.738;2022-09-09T05:08:43;13.38;;;5.78;;
61391;SDS011;47261;52.892;5.738;2022-09-09T05:11:13;14.80;;;5.78;;
61391;SDS011;47261;52.892;5.738;2022-09-09T05:13:39;15.73;;;6.85;;
61391;SDS011;47261;52.892;5.738;2022-09-09T05:16:05;13.07;;;6.33;;
61391;SDS011;47261;52.892;5.738;2022-09-09T05:18:30;14.82;;;6.35;;
61391;SDS011;47261;52.892;5.738;2022-09-09T05:20:59;15.60;;;6.20;;
61391;SDS011;47261;52.892;5.738;2022-09-09T05:23:25;19.27;;;7.75;;
61391;SDS011;47261;52.892;5.738;2022-09-09T05:25:57;13.40;;;6.25;;
61391;SDS011;47261;52.892;5.738;2022-09-09T05:28:24;17.63;;;7.27;;
61391;SDS011;47261;52.892;5.738;2022-09-09T05:31:00;18.10;;;7.95;;
61391;SDS011;47261;52.892;5.738;2022-09-09T05:33:33;17.27;;;7.25;;
61391;SDS011;47261;52.892;5.738;2022-09-09T05:36:00;18.67;;;8.52;;
61391;SDS011;47261;52.892;5.738;2022-09-09T05:38:30;17.52;;;7.05;;
61391;SDS011;47261;52.892;5.738;2022-09-09T05:40:58;14.27;;;6.53;;
61391;SDS011;47261;52.892;5.738;2022-09-09T05:43:24;13.63;;;6.55;;
61391;SDS011;47261;52.892;5.738;2022-09-09T05:46:02;16.25;;;6.60;;
61391;SDS011;47261;52.892;5.738;2022-09-09T05:48:29;15.60;;;5.85;;
61391;SDS011;47261;52.892;5.738;2022-09-09T05:50:57;14.95;;;6.22;;
61391;SDS011;47261;52.892;5.738;2022-09-09T05:53:23;15.00;;;6.30;;
61391;SDS011;47261;52.892;5.738;2022-09-09T05:55:49;11.43;;;4.93;;
61391;SDS011;47261;52.892;5.738;2022-09-09T05:58:15;17.02;;;6.03;;
61391;SDS011;47261;52.892;5.738;2022-09-09T06:00:42;17.92;;;5.78;;
61391;SDS011;47261;52.892;5.738;2022-09-09T06:03:10;14.20;;;5.40;;
61391;SDS011;47261;52.892;5.738;2022-09-09T06:05:36;15.40;;;5.53;;
61391;SDS011;47261;52.892;5.738;2022-09-09T06:08:02;15.45;;;5.35;;
61391;SDS011;47261;52.892;5.738;2022-09-09T06:10:28;17.00;;;6.50;;
61391;SDS011;47261;52.892;5.738;2022-09-09T06:12:54;19.70;;;5.37;;
61391;SDS011;47261;52.892;5.738;2022-09-09T06:15:19;16.33;;;5.93;;
61391;SDS011;47261;52.892;5.738;2022-09-09T06:17:45;13.38;;;4.82;;
61391;SDS011;47261;52.892;5.738;2022-09-09T06:20:11;12.90;;;5.43;;
61391;SDS011;47261;52.892;5.738;2022-09-09T06:22:39;12.05;;;5.40;;
61391;SDS011;47261;52.892;5.738;2022-09-09T06:25:06;13.50;;;5.40;;
61391;SDS011;47261;52.892;5.738;2022-09-09T06:27:32;12.18;;;5.15;;
61391;SDS011;47261;52.892;5.738;2022-09-09T06:29:58;15.53;;;6.90;;
61391;SDS011;47261;52.892;5.738;2022-09-09T06:32:24;13.67;;;6.40;;
61391;SDS011;47261;52.892;5.738;2022-09-09T06:34:50;13.23;;;5.63;;
61391;SDS011;47261;52.892;5.738;2022-09-09T06:37:16;17.53;;;5.47;;
61391;SDS011;47261;52.892;5.738;2022-09-09T06:39:42;13.15;;;4.95;;
61391;SDS011;47261;52.892;5.738;2022-09-09T06:42:07;13.60;;;5.27;;
61391;SDS011;47261;52.892;5.738;2022-09-09T06:44:34;13.77;;;6.20;;
61391;SDS011;47261;52.892;5.738;2022-09-09T06:47:00;13.73;;;5.83;;
61391;SDS011;47261;52.892;5.738;2022-09-09T06:49:25;13.25;;;5.97;;
61391;SDS011;47261;52.892;5.738;2022-09-09T06:51:51;10.17;;;5.03;;
61391;SDS011;47261;52.892;5.738;2022-09-09T06:54:17;11.50;;;5.15;;
61391;SDS011;47261;52.892;5.738;2022-09-09T06:56:43;11.40;;;4.57;;
61391;SDS011;47261;52.892;5.738;2022-09-09T06:59:10;11.13;;;4.65;;
61391;SDS011;47261;52.892;5.738;2022-09-09T07:01:37;11.43;;;5.63;;
61391;SDS011;47261;52.892;5.738;2022-09-09T07:04:08;13.45;;;5.38;;
61391;SDS011;47261;52.892;5.738;2022-09-09T07:06:44;11.45;;;5.55;;
61391;SDS011;47261;52.892;5.738;2022-09-09T07:09:12;9.15;;;4.18;;
61391;SDS011;47261;52.892;5.738;2022-09-09T07:11:41;12.10;;;5.50;;
61391;SDS011;47261;52.892;5.738;2022-09-09T07:14:08;10.47;;;4.73;;
61391;SDS011;47261;52.892;5.738;2022-09-09T07:16:37;15.68;;;5.13;;
61391;SDS011;47261;52.892;5.738;2022-09-09T07:19:03;8.25;;;3.22;;
61391;SDS011;47261;52.892;5.738;2022-09-09T07:21:30;10.30;;;3.60;;
61391;SDS011;47261;52.892;5.738;2022-09-09T07:23:56;10.38;;;3.67;;
61391;SDS011;47261;52.892;5.738;2022-09-09T07:26:24;10.82;;;4.43;;
61391;SDS011;47261;52.892;5.738;2022-09-09T07:28:51;12.88;;;4.32;;
61391;SDS011;47261;52.892;5.738;2022-09-09T07:31:21;12.07;;;4.37;;
61391;SDS011;47261;52.892;5.738;2022-09-09T07:33:48;10.93;;;4.25;;
61391;SDS011;47261;52.892;5.738;2022-09-09T07:36:18;13.00;;;4.67;;
61391;SDS011;47261;52.892;5.738;2022-09-09T07:38:49;12.40;;;4.00;;
61391;SDS011;47261;52.892;5.738;2022-09-09T07:41:29;9.70;;;3.40;;
61391;SDS011;47261;52.892;5.738;2022-09-09T07:43:59;11.77;;;3.70;;
61391;SDS011;47261;52.892;5.738;2022-09-09T07:46:28;10.20;;;4.50;;
61391;SDS011;47261;52.892;5.738;2022-09-09T07:48:55;10.00;;;3.73;;
61391;SDS011;47261;52.892;5.738;2022-09-09T07:51:25;9.90;;;4.20;;
61391;SDS011;47261;52.892;5.738;2022-09-09T07:53:53;14.68;;;5.30;;
61391;SDS011;47261;52.892;5.738;2022-09-09T07:56:22;10.73;;;4.97;;
61391;SDS011;47261;52.892;5.738;2022-09-09T07:58:49;8.43;;;4.67;;
61391;SDS011;47261;52.892;5.738;2022-09-09T08:01:17;14.60;;;5.28;;
61391;SDS011;47261;52.892;5.738;2022-09-09T08:03:46;12.27;;;4.20;;
61391;SDS011;47261;52.892;5.738;2022-09-09T08:06:17;14.60;;;4.15;;
61391;SDS011;47261;52.892;5.738;2022-09-09T08:08:43;9.65;;;3.60;;
61391;SDS011;47261;52.892;5.738;2022-09-09T08:11:14;8.47;;;3.83;;
61391;SDS011;47261;52.892;5.738;2022-09-09T08:13:41;13.73;;;4.70;;
61391;SDS011;47261;52.892;5.738;2022-09-09T08:16:09;13.68;;;5.10;;
61391;SDS011;47261;52.892;5.738;2022-09-09T08:18:37;11.00;;;4.32;;
61391;SDS011;47261;52.892;5.738;2022-09-09T08:21:06;10.85;;;4.53;;
61391;SDS011;47261;52.892;5.738;2022-09-09T08:23:34;16.13;;;5.37;;
61391;SDS011;47261;52.892;5.738;2022-09-09T08:26:19;12.20;;;5.70;;
61391;SDS011;47261;52.892;5.738;2022-09-09T08:28:50;13.35;;;5.10;;
61391;SDS011;47261;52.892;5.738;2022-09-09T08:31:24;9.95;;;3.97;;
61391;SDS011;47261;52.892;5.738;2022-09-09T08:33:53;12.55;;;4.38;;
61391;SDS011;47261;52.892;5.738;2022-09-09T08:36:20;11.23;;;3.40;;
61391;SDS011;47261;52.892;5.738;2022-09-09T08:38:48;15.05;;;3.85;;
61391;SDS011;47261;52.892;5.738;2022-09-09T08:50:12;10.17;;;2.70;;
61391;SDS011;47261;52.892;5.738;2022-09-09T08:55:44;7.03;;;2.60;;
61391;SDS011;47261;52.892;5.738;2022-09-09T09:01:17;10.38;;;2.50;;
61391;SDS011;47261;52.892;5.738;2022-09-09T09:04:15;10.43;;;2.53;;
61391;SDS011;47261;52.892;5.738;2022-09-09T09:12:40;8.48;;;2.38;;
61391;SDS011;47261;52.892;5.738;2022-09-09T09:15:14;6.43;;;2.03;;
61391;SDS011;47261;52.892;5.738;2022-09-09T09:17:44;8.27;;;2.70;;
61391;SDS011;47261;52.892;5.738;2022-09-09T09:20:16;6.95;;;1.88;;
61391;SDS011;47261;52.892;5.738;2022-09-09T09:25:22;10.67;;;2.10;;
61391;SDS011;47261;52.892;5.738;2022-09-09T09:28:10;4.80;;;1.50;;
61391;SDS011;47261;52.892;5.738;2022-09-09T09:30:46;5.40;;;1.48;;
61391;SDS011;47261;52.892;5.738;2022-09-09T09:33:22;7.57;;;1.73;;
61391;SDS011;47261;52.892;5.738;2022-09-09T09:35:56;8.23;;;2.08;;
61391;SDS011;47261;52.892;5.738;2022-09-09T09:38:25;8.33;;;1.93;;
61391;SDS011;47261;52.892;5.738;2022-09-09T09:40:53;9.05;;;2.20;;
61391;SDS011;47261;52.892;5.738;2022-09-09T09:43:32;9.73;;;2.03;;
61391;SDS011;47261;52.892;5.738;2022-09-09T09:45:59;10.18;;;2.45;;
61391;SDS011;47261;52.892;5.738;2022-09-09T09:48:28;6.60;;;1.75;;
61391;SDS011;47261;52.892;5.738;2022-09-09T09:50:55;7.43;;;1.87;;
61391;SDS011;47261;52.892;5.738;2022-09-09T09:53:24;11.10;;;1.88;;
61391;SDS011;47261;52.892;5.738;2022-09-09T09:55:53;11.40;;;2.28;;
61391;SDS011;47261;52.892;5.738;2022-09-09T09:58:19;5.88;;;1.85;;
61391;SDS011;47261;52.892;5.738;2022-09-09T10:00:48;12.87;;;2.13;;
61391;SDS011;47261;52.892;5.738;2022-09-09T10:05:49;9.30;;;2.03;;
61391;SDS011;47261;52.892;5.738;2022-09-09T10:08:16;9.40;;;1.80;;
61391;SDS011;47261;52.892;5.738;2022-09-09T10:14:15;8.20;;;1.50;;
61391;SDS011;47261;52.892;5.738;2022-09-09T10:22:35;6.40;;;1.60;;
61391;SDS011;47261;52.892;5.738;2022-09-09T10:36:12;7.70;;;1.33;;
61391;SDS011;47261;52.892;5.738;2022-09-09T10:38:47;6.32;;;1.15;;
61391;SDS011;47261;52.892;5.738;2022-09-09T10:51:48;6.88;;;1.52;;
61391;SDS011;47261;52.892;5.738;2022-09-09T10:57:17;10.57;;;1.77;;
61391;SDS011;47261;52.892;5.738;2022-09-09T10:59:50;8.02;;;1.50;;
61391;SDS011;47261;52.892;5.738;2022-09-09T11:02:28;7.37;;;1.73;;
61391;SDS011;47261;52.892;5.738;2022-09-09T11:04:58;6.72;;;1.50;;
61391;SDS011;47261;52.892;5.738;2022-09-09T11:07:37;10.50;;;2.25;;
61391;SDS011;47261;52.892;5.738;2022-09-09T11:10:19;12.93;;;1.73;;
61391;SDS011;47261;52.892;5.738;2022-09-09T11:13:07;7.20;;;1.73;;
61391;SDS011;47261;52.892;5.738;2022-09-09T11:16:16;8.80;;;1.93;;
61391;SDS011;47261;52.892;5.738;2022-09-09T11:19:05;9.73;;;1.75;;
61391;SDS011;47261;52.892;5.738;2022-09-09T11:21:37;7.53;;;1.92;;
61391;SDS011;47261;52.892;5.738;2022-09-09T11:24:10;8.27;;;1.90;;
61391;SDS011;47261;52.892;5.738;2022-09-09T11:26:53;12.25;;;2.25;;
61391;SDS011;47261;52.892;5.738;2022-09-09T11:34:53;9.40;;;1.70;;
61391;SDS011;47261;52.892;5.738;2022-09-09T11:42:39;9.43;;;1.47;;
61391;SDS011;47261;52.892;5.738;2022-09-09T11:45:10;10.27;;;1.58;;
61391;SDS011;47261;52.892;5.738;2022-09-09T11:50:57;10.85;;;1.90;;
61391;SDS011;47261;52.892;5.738;2022-09-09T11:53:32;12.75;;;1.90;;
61391;SDS011;47261;52.892;5.738;2022-09-09T11:56:09;15.83;;;1.67;;
61391;SDS011;47261;52.892;5.738;2022-09-09T11:58:39;8.10;;;1.25;;
61391;SDS011;47261;52.892;5.738;2022-09-09T12:01:28;9.02;;;1.60;;
61391;SDS011;47261;52.892;5.738;2022-09-09T12:06:43;7.35;;;2.20;;
61391;SDS011;47261;52.892;5.738;2022-09-09T12:09:33;11.43;;;1.97;;
61391;SDS011;47261;52.892;5.738;2022-09-09T12:12:07;9.80;;;2.47;;
61391;SDS011;47261;52.892;5.738;2022-09-09T12:14:55;8.20;;;1.20;;
61391;SDS011;47261;52.892;5.738;2022-09-09T12:17:22;7.70;;;1.83;;
61391;SDS011;47261;52.892;5.738;2022-09-09T12:33:35;5.68;;;1.10;;
61391;SDS011;47261;52.892;5.738;2022-09-09T12:36:02;3.90;;;0.93;;
61391;SDS011;47261;52.892;5.738;2022-09-09T12:38:36;9.75;;;1.30;;
61391;SDS011;47261;52.892;5.738;2022-09-09T12:41:04;8.18;;;1.00;;
61391;SDS011;47261;52.892;5.738;2022-09-09T12:43:30;6.88;;;1.60;;
61391;SDS011;47261;52.892;5.738;2022-09-09T12:45:57;7.83;;;1.33;;
61391;SDS011;47261;52.892;5.738;2022-09-09T12:48:35;6.97;;;1.35;;
61391;SDS011;47261;52.892;5.738;2022-09-09T12:51:05;7.18;;;0.98;;
61391;SDS011;47261;52.892;5.738;2022-09-09T12:53:40;7.07;;;1.80;;
61391;SDS011;47261;52.892;5.738;2022-09-09T12:56:07;5.97;;;1.70;;
61391;SDS011;47261;52.892;5.738;2022-09-09T12:58:35;7.63;;;2.10;;
61391;SDS011;47261;52.892;5.738;2022-09-09T13:01:03;6.25;;;1.80;;
61391;SDS011;47261;52.892;5.738;2022-09-09T13:03:30;9.10;;;2.45;;
61391;SDS011;47261;52.892;5.738;2022-09-09T13:05:58;7.03;;;1.80;;
61391;SDS011;47261;52.892;5.738;2022-09-09T13:08:36;6.22;;;1.50;;
61391;SDS011;47261;52.892;5.738;2022-09-09T13:11:04;5.70;;;1.58;;
61391;SDS011;47261;52.892;5.738;2022-09-09T13:13:36;5.18;;;1.70;;
61391;SDS011;47261;52.892;5.738;2022-09-09T13:16:04;5.97;;;1.90;;
61391;SDS011;47261;52.892;5.738;2022-09-09T13:18:34;9.13;;;2.27;;
61391;SDS011;47261;52.892;5.738;2022-09-09T13:21:01;6.93;;;1.80;;
61391;SDS011;47261;52.892;5.738;2022-09-09T13:23:28;4.78;;;1.73;;
61391;SDS011;47261;52.892;5.738;2022-09-09T13:26:00;7.30;;;1.65;;
61391;SDS011;47261;52.892;5.738;2022-09-09T13:28:46;6.50;;;1.80;;
61391;SDS011;47261;52.892;5.738;2022-09-09T13:33:54;9.00;;;2.20;;
61391;SDS011;47261;52.892;5.738;2022-09-09T13:36:27;5.25;;;1.58;;
61391;SDS011;47261;52.892;5.738;2022-09-09T13:39:00;7.97;;;2.00;;
61391;SDS011;47261;52.892;5.738;2022-09-09T13:41:42;6.10;;;1.20;;
61391;SDS011;47261;52.892;5.738;2022-09-09T13:47:17;8.45;;;1.75;;
61391;SDS011;47261;52.892;5.738;2022-09-09T13:49:44;6.22;;;1.02;;
61391;SDS011;47261;52.892;5.738;2022-09-09T13:52:17;5.40;;;1.42;;
61391;SDS011;47261;52.892;5.738;2022-09-09T13:54:47;3.95;;;0.90;;
61391;SDS011;47261;52.892;5.738;2022-09-09T13:57:21;3.37;;;1.00;;
61391;SDS011;47261;52.892;5.738;2022-09-09T13:59:48;3.75;;;0.90;;
61391;SDS011;47261;52.892;5.738;2022-09-09T14:02:14;5.00;;;0.98;;
61391;SDS011;47261;52.892;5.738;2022-09-09T14:04:42;3.60;;;1.13;;
61391;SDS011;47261;52.892;5.738;2022-09-09T14:07:14;3.43;;;0.60;;
61391;SDS011;47261;52.892;5.738;2022-09-09T14:09:41;7.65;;;2.03;;
61391;SDS011;47261;52.892;5.738;2022-09-09T14:12:10;5.43;;;1.17;;
61391;SDS011;47261;52.892;5.738;2022-09-09T14:14:37;5.65;;;1.80;;
61391;SDS011;47261;52.892;5.738;2022-09-09T14:17:03;6.68;;;1.73;;
61391;SDS011;47261;52.892;5.738;2022-09-09T14:19:29;4.67;;;1.20;;
61391;SDS011;47261;52.892;5.738;2022-09-09T14:21:56;6.93;;;2.03;;
61391;SDS011;47261;52.892;5.738;2022-09-09T14:24:22;6.13;;;1.88;;
61391;SDS011;47261;52.892;5.738;2022-09-09T14:26:48;3.88;;;1.10;;
61391;SDS011;47261;52.892;5.738;2022-09-09T14:29:14;5.73;;;2.00;;
61391;SDS011;47261;52.892;5.738;2022-09-09T14:31:39;3.20;;;1.30;;
61391;SDS011;47261;52.892;5.738;2022-09-09T14:34:05;7.60;;;2.43;;
61391;SDS011;47261;52.892;5.738;2022-09-09T14:36:31;6.38;;;2.25;;
61391;SDS011;47261;52.892;5.738;2022-09-09T14:38:57;8.70;;;2.50;;
61391;SDS011;47261;52.892;5.738;2022-09-09T14:41:23;5.45;;;2.03;;
61391;SDS011;47261;52.892;5.738;2022-09-09T14:43:50;10.45;;;3.00;;
61391;SDS011;47261;52.892;5.738;2022-09-09T14:46:17;9.20;;;3.80;;
61391;SDS011;47261;52.892;5.738;2022-09-09T14:48:44;9.27;;;3.60;;
61391;SDS011;47261;52.892;5.738;2022-09-09T14:51:23;11.77;;;3.73;;
61391;SDS011;47261;52.892;5.738;2022-09-09T14:53:53;7.40;;;2.67;;
61391;SDS011;47261;52.892;5.738;2022-09-09T14:56:21;7.97;;;3.28;;
61391;SDS011;47261;52.892;5.738;2022-09-09T14:58:49;6.90;;;2.80;;
61391;SDS011;47261;52.892;5.738;2022-09-09T15:01:17;8.00;;;2.65;;
61391;SDS011;47261;52.892;5.738;2022-09-09T15:03:48;9.00;;;2.90;;
61391;SDS011;47261;52.892;5.738;2022-09-09T15:06:16;8.73;;;3.47;;
61391;SDS011;47261;52.892;5.738;2022-09-09T15:08:42;8.93;;;3.00;;
61391;SDS011;47261;52.892;5.738;2022-09-09T15:11:09;8.23;;;3.00;;
61391;SDS011;47261;52.892;5.738;2022-09-09T15:13:36;9.25;;;2.90;;
61391;SDS011;47261;52.892;5.738;2022-09-09T15:16:03;10.18;;;3.65;;
61391;SDS011;47261;52.892;5.738;2022-09-09T15:18:32;7.95;;;2.55;;
61391;SDS011;47261;52.892;5.738;2022-09-09T15:20:59;8.32;;;2.10;;
61391;SDS011;47261;52.892;5.738;2022-09-09T15:23:26;11.40;;;3.00;;
61391;SDS011;47261;52.892;5.738;2022-09-09T15:25:55;11.23;;;3.17;;
61391;SDS011;47261;52.892;5.738;2022-09-09T15:28:21;10.35;;;3.05;;
61391;SDS011;47261;52.892;5.738;2022-09-09T15:30:47;7.47;;;3.43;;
61391;SDS011;47261;52.892;5.738;2022-09-09T15:33:14;8.15;;;3.00;;
61391;SDS011;47261;52.892;5.738;2022-09-09T15:35:39;13.20;;;3.10;;
61391;SDS011;47261;52.892;5.738;2022-09-09T15:38:05;7.32;;;2.60;;
61391;SDS011;47261;52.892;5.738;2022-09-09T15:40:31;8.30;;;2.83;;
61391;SDS011;47261;52.892;5.738;2022-09-09T15:42:59;7.97;;;2.70;;
61391;SDS011;47261;52.892;5.738;2022-09-09T15:45:25;9.03;;;3.67;;
61391;SDS011;47261;52.892;5.738;2022-09-09T15:47:51;9.20;;;3.53;;
61391;SDS011;47261;52.892;5.738;2022-09-09T15:50:17;6.10;;;2.73;;
61391;SDS011;47261;52.892;5.738;2022-09-09T15:52:43;8.10;;;2.88;;
61391;SDS011;47261;52.892;5.738;2022-09-09T15:55:09;8.55;;;3.00;;
61391;SDS011;47261;52.892;5.738;2022-09-09T15:57:35;10.23;;;3.07;;
61391;SDS011;47261;52.892;5.738;2022-09-09T16:00:02;8.40;;;2.90;;
61391;SDS011;47261;52.892;5.738;2022-09-09T16:02:29;8.45;;;2.60;;
61391;SDS011;47261;52.892;5.738;2022-09-09T16:04:55;7.25;;;2.70;;
61391;SDS011;47261;52.892;5.738;2022-09-09T16:07:22;10.53;;;3.20;;
61391;SDS011;47261;52.892;5.738;2022-09-09T16:09:48;7.72;;;2.40;;
61391;SDS011;47261;52.892;5.738;2022-09-09T16:12:16;7.07;;;2.47;;
61391;SDS011;47261;52.892;5.738;2022-09-09T16:14:42;5.77;;;1.67;;
61391;SDS011;47261;52.892;5.738;2022-09-09T16:17:08;6.07;;;1.85;;
61391;SDS011;47261;52.892;5.738;2022-09-09T16:19:34;7.72;;;2.20;;
61391;SDS011;47261;52.892;5.738;2022-09-09T16:22:00;6.28;;;2.50;;
61391;SDS011;47261;52.892;5.738;2022-09-09T16:24:26;7.33;;;2.17;;
61391;SDS011;47261;52.892;5.738;2022-09-09T16:26:52;6.97;;;2.53;;
61391;SDS011;47261;52.892;5.738;2022-09-09T16:29:19;7.53;;;1.70;;
61391;SDS011;47261;52.892;5.738;2022-09-09T16:31:47;4.32;;;1.67;;
61391;SDS011;47261;52.892;5.738;2022-09-09T16:34:13;5.93;;;1.70;;
61391;SDS011;47261;52.892;5.738;2022-09-09T16:36:40;7.17;;;2.00;;
61391;SDS011;47261;52.892;5.738;2022-09-09T16:39:14;7.55;;;2.00;;
61391;SDS011;47261;52.892;5.738;2022-09-09T16:41:42;6.15;;;2.10;;
61391;SDS011;47261;52.892;5.738;2022-09-09T16:44:10;5.70;;;2.08;;
61391;SDS011;47261;52.892;5.738;2022-09-09T16:46:38;7.53;;;2.30;;
61391;SDS011;47261;52.892;5.738;2022-09-09T16:49:06;7.50;;;2.23;;
61391;SDS011;47261;52.892;5.738;2022-09-09T16:51:34;8.32;;;2.20;;
61391;SDS011;47261;52.892;5.738;2022-09-09T16:54:02;7.57;;;2.40;;
61391;SDS011;47261;52.892;5.738;2022-09-09T16:56:31;5.88;;;2.10;;
61391;SDS011;47261;52.892;5.738;2022-09-09T16:59:00;7.15;;;2.25;;
61391;SDS011;47261;52.892;5.738;2022-09-09T17:01:28;7.83;;;2.20;;
61391;SDS011;47261;52.892;5.738;2022-09-09T17:03:57;7.15;;;2.00;;
61391;SDS011;47261;52.892;5.738;2022-09-09T17:06:24;8.95;;;2.10;;
61391;SDS011;47261;52.892;5.738;2022-09-09T17:08:54;6.25;;;2.30;;